Latest Weather Observations for Gabo Island

IDN60801

Issued at 5:13 pm EDT Saturday 5 December 2020 (issued every 10 minutes, with the page automatically refreshed every 10 minutes)

About weather observations | Map of weather stations | Latest weather observations for NSW | Other Formats
Station Details ID: 084016 Name: GABO ISLAND LIGHTHOUSE Lat: -37.57 Lon: 149.92 Height: 15.0 m
Data from the previous 72 hours. | See also: Recent months at Gabo Island
Date/Time
EDT
Temp
°C
App
Temp
°C
Dew
Point
°C
Rel
Hum
%
Delta-T
°C
Wind Press
QNH
hPa
Press
MSL
hPa
Rain since
9am
mm
Dir  Spd
km/h
Gust
km/h
Spd
kts
Gust
kts
05/05:00pm 19.6 10.3 16.8 84 1.7 NNE 61 74 33 40 995.4 995.3 0.0
05/04:30pm 19.7 10.0 16.6 82 1.9 NNE 63 76 34 41 995.5 995.4 0.0
05/04:00pm 19.9 10.5 16.4 80 2.1 NNE 61 72 33 39 996.9 996.8 0.0
05/03:39pm 20.0 10.9 16.2 79 2.3 NNE 59 78 32 42 997.5 997.4 0.0
05/03:30pm 20.1 9.8 16.1 78 2.4 NNE 65 76 35 41 997.9 997.8 0.0
05/03:00pm 20.2 11.0 15.9 76 2.6 NNE 59 72 32 39 999.2 999.1 0.0
05/02:30pm 20.1 9.9 15.4 74 2.8 NNE 63 76 34 41 999.8 999.8 0.0
05/02:00pm 20.8 11.4 15.4 71 3.2 NNE 59 72 32 39 1001.0 1001.0 0.0
05/01:30pm 21.0 10.6 14.9 68 3.6 NNE 63 76 34 41 1001.7 1001.7 0.0
05/01:00pm 20.6 10.6 14.8 69 3.4 NNE 61 76 33 41 1002.2 1002.2 0.0
05/12:30pm 20.4 10.7 14.6 69 3.4 NNE 59 72 32 39 1003.3 1003.3 0.0
05/12:00pm 20.0 10.5 14.3 69 3.3 NNE 57 69 31 37 1004.1 1004.1 0.0
05/11:30am 20.4 10.8 13.8 66 3.8 NNE 57 70 31 38 1004.9 1004.9 0.0
05/11:00am 20.6 12.3 13.9 65 3.9 NNE 50 65 27 35 1005.8 1005.8 0.0
05/10:36am 20.4 11.9 13.2 63 4.1 NNE 50 69 27 37 1006.0 1006.0 0.0
05/10:30am 20.6 12.3 13.7 64 4.0 NNE 50 65 27 35 1006.1 1006.1 0.0
05/10:23am 20.3 10.3 13.7 66 3.8 NNE 59 78 32 42 1005.9 1005.9 0.0
05/10:00am 19.9 9.3 13.2 65 3.8 NNE 61 78 33 42 1005.8 1005.8 0.0
05/09:30am 19.4 8.5 13.3 68 3.5 NNE 63 82 34 44 1005.9 1005.9 0.0
05/09:12am 19.3 9.6 13.5 69 3.3 NNE 57 80 31 43 1006.4 1006.4 0.0
05/09:00am 19.2 9.1 13.6 70 3.2 NNE 59 76 32 41 1007.0 1007.0 0.0
05/08:53am 18.9 9.2 13.5 71 3.1 NNE 57 76 31 41 1006.9 1006.9 0.0
05/08:30am 18.8 9.2 13.3 70 3.1 NNE 56 69 30 37 1008.0 1008.0 0.0
05/08:22am 18.9 11.2 13.3 70 3.2 NNE 46 65 25 35 1008.7 1008.7 0.0
05/08:00am 18.7 12.8 13.6 72 2.9 NNE 37 46 20 25 1009.8 1009.8 0.0
05/07:30am 18.1 13.9 13.5 74 2.6 NNE 28 41 15 22 1009.8 1009.8 0.0
05/07:28am 17.9 13.7 13.5 75 2.5 NNE 28 41 15 22 1009.9 1009.9 0.0
05/07:00am 15.8 13.6 12.1 78 2.0 NNE 15 17 8 9 1010.7 1010.7 0.0
05/06:30am 15.2 12.5 11.7 79 1.9 NNE 17 20 9 11 1010.6 1010.6 0.0
05/06:00am 14.9 11.8 11.6 80 1.8 NE 19 20 10 11 1010.8 1010.8 0.0
05/05:30am 14.5 11.6 11.1 80 1.8 NE 17 20 9 11 1011.2 1011.2 0.0
05/05:00am 13.8 11.5 10.3 79 1.8 NNE 13 17 7 9 1011.9 1011.9 0.0
05/04:30am 12.8 10.8 10.1 84 1.4 N 11 15 6 8 1012.0 1012.0 0.0
05/04:00am 12.8 10.9 10.5 86 1.2 NNE 11 15 6 8 1011.9 1011.9 0.0
05/03:30am 13.2 11.0 10.7 85 1.3 NNE 13 13 7 7 1012.2 1012.2 0.0
05/03:00am 12.3 10.2 9.7 84 1.3 N 11 11 6 6 1012.9 1012.9 0.0
05/02:30am 12.9 10.5 10.0 82 1.5 N 13 15 7 8 1013.2 1013.2 0.0
05/02:00am 13.3 11.3 10.0 80 1.7 NNW 11 13 6 7 1013.6 1013.6 0.0
05/01:30am 13.7 12.1 10.2 79 1.8 NW 9 11 5 6 1014.0 1014.0 0.0
05/01:00am 13.9 12.4 10.7 81 1.7 NW 9 11 5 6 1014.4 1014.4 0.0
05/12:30am 14.9 12.7 10.7 76 2.2 W 13 15 7 8 1014.7 1014.7 0.0
05/12:00am 15.4 12.4 10.5 72 2.6 W 17 20 9 11 1014.7 1014.7 0.0
 
Date/Time
EDT
Temp
°C
App
Temp
°C
Dew
Point
°C
Rel
Hum
%
Delta-T
°C
Wind Press
QNH
hPa
Press
MSL
hPa
Rain since
9am
mm
Dir  Spd
km/h
Gust
km/h
Spd
kts
Gust
kts
04/11:30pm 15.4 12.4 10.5 72 2.6 W 17 19 9 10 1014.6 1014.6 0.0
04/11:00pm 15.6 12.6 10.7 72 2.6 W 17 20 9 11 1014.7 1014.7 0.0
04/10:30pm 15.8 12.8 10.7 71 2.7 WSW 17 22 9 12 1014.7 1014.7 0.0
04/10:00pm 16.3 13.4 11.1 71 2.8 WSW 17 20 9 11 1014.9 1014.9 0.0
04/09:30pm 16.9 13.3 11.8 72 2.8 SW 22 28 12 15 1014.6 1014.6 0.0
04/09:00pm 16.9 12.5 11.6 71 2.9 SW 26 32 14 17 1014.8 1014.8 0.0
04/08:30pm 17.0 11.2 10.8 67 3.3 SW 32 35 17 19 1014.6 1014.6 0.0
04/08:00pm 17.0 11.7 11.1 68 3.2 SW 30 35 16 19 1014.1 1014.1 0.0
04/07:30pm 17.2 11.2 10.9 66 3.4 SW 33 39 18 21 1013.6 1013.6 0.0
04/07:00pm 17.7 11.8 11.2 65 3.5 SW 33 39 18 21 1013.4 1013.4 0.0
04/06:30pm 17.8 11.3 10.5 62 3.9 SW 35 44 19 24 1013.4 1013.4 0.0
04/06:00pm 18.0 11.9 10.3 60 4.1 SW 33 39 18 21 1013.5 1013.5 0.0
04/05:30pm 18.0 11.2 10.8 63 3.9 SW 37 46 20 25 1013.3 1013.3 0.0
04/05:00pm 17.5 9.4 10.6 64 3.7 SW 44 52 24 28 1013.4 1013.4 0.0
04/04:30pm 17.6 9.2 10.9 65 3.6 SW 46 56 25 30 1013.6 1013.6 0.0
04/04:00pm 18.0 9.5 10.5 61 4.0 SW 46 56 25 30 1013.9 1013.9 0.0
04/03:30pm 17.7 9.9 11.0 65 3.6 SW 43 52 23 28 1013.9 1013.9 0.0
04/03:00pm 18.0 10.0 12.4 70 3.1 SW 46 56 25 30 1013.8 1013.8 0.0
04/02:30pm 17.5 8.6 11.8 69 3.1 SW 50 57 27 31 1013.5 1013.5 0.0
04/02:00pm 17.6 8.9 12.4 71 2.9 SW 50 57 27 31 1013.4 1013.4 0.0
04/01:30pm 18.1 9.7 12.3 69 3.2 SW 48 57 26 31 1013.9 1013.9 0.0
04/01:00pm 18.3 8.7 13.2 72 2.9 SW 56 65 30 35 1013.2 1013.2 0.0
04/12:30pm 18.9 10.7 14.2 74 2.7 SW 50 57 27 31 1013.1 1013.1 0.0
04/12:00pm 18.4 8.8 14.0 75 2.5 SW 57 70 31 38 1012.7 1012.7 0.0
04/11:30am 18.2 8.9 13.0 71 2.9 SW 54 65 29 35 1012.2 1012.2 0.0
04/11:20am 17.7 8.0 12.9 73 2.7 SW 56 65 30 35 1011.8 1011.8 0.0
04/11:05am 17.7 11.3 13.1 74 2.6 SSW 39 57 21 31 1012.3 1012.3 0.0
04/11:00am 18.4 12.0 13.1 71 3.0 SSW 39 46 21 25 1012.5 1012.5 0.0
04/10:35am 19.6 17.3 14.2 71 3.1 SSE 19 44 10 24 1012.5 1012.5 0.0
04/10:30am 19.8 19.0 16.1 79 2.2 ENE 15 20 8 11 1012.2 1012.2 0.0
04/10:00am 19.9 18.2 16.2 79 2.2 NE 20 26 11 14 1011.8 1011.8 0.0
04/09:30am 19.8 17.2 15.8 78 2.4 NE 24 28 13 15 1012.1 1012.1 0.0
04/09:00am 19.3 16.5 15.4 78 2.3 NE 24 30 13 16 1012.5 1012.5 0.0
04/08:30am 18.5 15.3 15.3 81 1.9 NE 26 30 14 16 1012.7 1012.7 0.0
04/08:00am 17.9 14.5 14.8 82 1.8 NE 26 32 14 17 1012.8 1012.8 0.0
04/07:30am 16.7 14.8 14.1 85 1.5 NNE 17 20 9 11 1013.0 1013.0 0.0
04/07:00am 16.2 13.8 13.9 86 1.3 NNE 19 22 10 12 1013.3 1013.3 0.0
04/06:30am 15.4 14.0 13.4 88 1.1 NNE 13 17 7 9 1013.6 1013.6 0.0
04/06:00am 14.3 12.6 12.5 89 1.0 NNE 13 15 7 8 1013.9 1013.9 0.0
04/05:30am 13.0 11.7 11.1 88 1.0 N 9 13 5 7 1014.1 1014.1 0.0
04/05:00am 13.7 12.8 11.4 86 1.2 NNW 7 9 4 5 1014.4 1014.4 0.0
04/04:30am 14.4 13.3 11.8 84 1.4 NW 9 11 5 6 1014.6 1014.6 0.0
04/04:00am 15.0 14.3 11.9 82 1.7 WNW 7 9 4 5 1014.9 1014.9 0.0
04/03:30am 14.9 14.0 11.5 80 1.8 SW 7 7 4 4 1015.0 1015.0 0.0
04/03:00am 15.4 14.5 11.5 77 2.1 WSW 7 9 4 5 1015.5 1015.5 0.0
04/02:30am 16.2 14.8 12.2 77 2.2 SW 11 13 6 7 1016.1 1016.1 0.0
04/02:00am 16.4 14.7 12.4 77 2.2 SW 13 15 7 8 1016.7 1016.7 0.0
04/01:30am 16.5 14.4 12.3 76 2.3 SSW 15 17 8 9 1017.0 1017.0 0.0
04/01:00am 16.6 14.6 12.6 77 2.2 SSW 15 15 8 8 1017.5 1017.5 0.0
04/12:30am 16.7 15.2 13.1 79 2.0 SSW 13 17 7 9 1017.8 1017.8 0.0
04/12:00am 16.7 14.9 13.3 80 1.9 SSW 15 17 8 9 1018.0 1018.0 0.0
 
Date/Time
EDT
Temp
°C
App
Temp
°C
Dew
Point
°C
Rel
Hum
%
Delta-T
°C
Wind Press
QNH
hPa
Press
MSL
hPa
Rain since
9am
mm
Dir  Spd
km/h
Gust
km/h
Spd
kts
Gust
kts
03/11:30pm 16.9 14.3 13.3 79 2.0 SSW 19 20 10 11 1018.4 1018.4 0.0
03/11:00pm 16.8 14.3 13.4 80 1.9 SSW 19 20 10 11 1018.4 1018.4 0.0
03/10:30pm 17.0 14.5 13.6 80 1.9 SSW 19 20 10 11 1018.4 1018.4 0.0
03/10:00pm 17.1 14.8 14.1 82 1.7 S 19 24 10 13 1018.5 1018.5 0.0
03/09:30pm 17.3 14.8 14.1 81 1.8 S 20 24 11 13 1018.5 1018.5 0.0
03/09:00pm 17.4 14.9 14.1 81 1.9 S 20 24 11 13 1018.5 1018.5 0.0
03/08:30pm 17.5 14.7 14.4 82 1.8 S 22 28 12 15 1018.5 1018.5 0.0
03/08:00pm 17.5 13.6 14.4 82 1.8 S 28 35 15 19 1018.5 1018.5 0.0
03/07:59pm 17.5 13.6 14.5 82 1.7 S 28 35 15 19 1018.5 1018.5 0.0
03/07:30pm 18.4 18.7 15.9 85 1.5 SE 9 15 5 8 1018.5 1018.5 0.0
03/07:00pm 18.5 18.1 16.1 86 1.4 E 13 15 7 8 1018.2 1018.2 0.0
03/06:30pm 18.6 17.8 16.2 86 1.4 ENE 15 17 8 9 1017.8 1017.8 0.0
03/06:00pm 18.9 17.1 16.0 83 1.7 NE 20 22 11 12 1017.3 1017.3 0.0
03/05:30pm 18.9 17.1 15.9 83 1.8 NE 20 24 11 13 1017.5 1017.5 0.0
03/05:00pm 19.2 16.1 15.5 79 2.2 NE 26 32 14 17 1017.5 1017.5 0.0
03/04:30pm 19.5 15.5 15.1 76 2.6 NE 30 35 16 19 1017.4 1017.4 0.0
03/04:00pm 19.7 15.2 14.9 74 2.8 NE 32 37 17 20 1017.6 1017.6 0.0
03/03:30pm 20.5 15.7 14.7 69 3.4 NE 33 41 18 22 1017.5 1017.5 0.0
03/03:00pm 20.2 15.3 14.3 69 3.4 NE 33 43 18 23 1017.9 1017.9 0.0
03/02:30pm 19.4 13.8 14.4 73 2.9 NE 37 43 20 23 1018.3 1018.3 0.0
03/02:00pm 20.8 14.7 14.1 65 3.9 NE 39 46 21 25 1018.5 1018.5 0.0
03/01:30pm 19.3 13.1 13.9 71 3.1 NE 39 44 21 24 1019.0 1019.0 0.0
03/01:00pm 20.0 14.7 14.1 69 3.4 NE 35 41 19 22 1019.5 1019.5 0.0
03/12:30pm 20.2 14.7 13.6 66 3.8 NE 35 43 19 23 1019.8 1019.8 0.0
03/12:00pm 19.7 14.1 13.2 66 3.7 NE 35 41 19 22 1020.3 1020.3 0.0
03/11:30am 19.8 14.1 13.1 65 3.8 NE 35 43 19 23 1020.5 1020.5 0.0
03/11:00am 19.6 14.0 13.2 66 3.6 NE 35 39 19 21 1020.6 1020.6 0.0
03/10:30am 18.2 14.3 13.4 73 2.7 ENE 26 30 14 16 1021.3 1021.3 0.0
03/10:00am 18.0 14.5 12.2 69 3.2 NE 22 26 12 14 1021.8 1021.8 0.0
03/09:30am 18.0 14.3 11.4 65 3.6 NE 22 26 12 14 1022.2 1022.2 0.0
03/09:00am 17.2 12.9 10.6 65 3.5 ENE 24 26 13 14 1022.4 1022.4 0.0
03/08:30am 16.9 13.2 10.1 64 3.6 NE 20 30 11 16 1022.4 1022.4 0.0
03/08:00am 15.8 13.4 8.7 62 3.6 NNE 11 15 6 8 1022.9 1022.9 0.0
03/07:30am 15.6 12.4 8.5 62 3.6 NE 15 17 8 9 1022.5 1022.5 0.0
03/07:00am 15.2 12.2 7.7 61 3.7 NE 13 15 7 8 1022.3 1022.3 0.0
03/06:30am 14.5 12.4 8.3 66 3.1 N 9 13 5 7 1022.3 1022.3 0.0
03/06:00am 14.0 11.8 7.9 66 3.0 N 9 11 5 6 1022.4 1022.4 0.0
03/05:30am 14.0 12.2 7.9 66 3.0 NNW 7 9 4 5 1022.5 1022.5 0.0
03/05:00am 14.2 12.0 7.7 65 3.2 NW 9 11 5 6 1022.4 1022.4 0.0
03/04:30am 14.4 12.5 7.7 64 3.3 W 7 9 4 5 1022.4 1022.4 0.0
03/04:00am 14.6 12.2 6.8 59 3.8 WSW 9 11 5 6 1022.4 1022.4 0.0
03/03:30am 14.5 11.7 6.9 60 3.7 W 11 13 6 7 1022.8 1022.8 0.0
03/03:00am 14.6 11.8 7.0 60 3.7 W 11 13 6 7 1023.2 1023.2 0.0
03/02:30am 14.8 11.2 6.8 58 3.9 WSW 15 20 8 11 1023.7 1023.7 0.0
03/02:00am 14.8 10.1 6.0 55 4.2 WSW 20 24 11 13 1023.8 1023.8 0.0
03/01:30am 14.9 10.4 6.9 58 3.9 WSW 20 26 11 14 1024.4 1024.4 0.0
03/01:00am 15.1 10.5 6.4 56 4.2 WSW 20 26 11 14 1024.8 1024.8 0.0
03/12:30am 15.2 10.2 6.5 56 4.2 WSW 22 26 12 14 1025.1 1025.1 0.0
03/12:00am 15.3 10.7 6.4 55 4.3 WSW 20 26 11 14 1025.3 1025.3 0.0
 
Date/Time
EDT
Temp
°C
App
Temp
°C
Dew
Point
°C
Rel
Hum
%
Delta-T
°C
Wind Press
QNH
hPa
Press
MSL
hPa
Rain since
9am
mm
Dir  Spd
km/h
Gust
km/h
Spd
kts
Gust
kts
02/11:30pm 15.6 10.0 7.3 57 4.1 SW 26 30 14 16 1025.3 1025.3 0.0
02/11:00pm 15.6 10.5 7.5 58 4.0 SW 24 32 13 17 1025.6 1025.6 0.0
02/10:30pm 15.6 9.8 8.0 60 3.8 SW 28 35 15 19 1025.7 1025.7 0.0
02/10:00pm 15.6 9.2 8.5 62 3.6 SW 32 39 17 21 1025.8 1025.8 0.0
02/09:30pm 15.6 8.4 7.5 58 4.0 SW 35 43 19 23 1025.4 1025.4 0.0
02/09:00pm 15.5 8.0 8.1 61 3.7 SW 37 43 20 23 1025.0 1025.0 0.0
02/08:30pm 15.6 7.8 8.2 61 3.7 SW 39 46 21 25 1024.5 1024.5 0.0
02/08:00pm 15.7 7.9 8.1 60 3.8 SW 39 46 21 25 1024.2 1024.2 0.0
02/07:30pm 15.8 7.2 8.3 61 3.8 SW 43 48 23 26 1023.4 1023.4 0.0
02/07:00pm 16.0 6.8 8.0 59 4.0 SW 46 54 25 29 1022.8 1022.8 0.0
02/06:30pm 16.3 7.7 6.4 52 4.8 SW 41 48 22 26 1022.5 1022.5 0.0
02/06:00pm 16.6 7.7 6.8 52 4.8 SW 43 52 23 28 1022.3 1022.3 0.0
02/05:30pm 16.7 6.9 7.2 53 4.7 SW 48 56 26 30 1021.6 1021.6 0.0

Other formats

Comma delimited format used in spreadsheet applications
http://www.bom.gov.au/fwo/IDN60801/IDN60801.94933.axf

JavaScript Object Notation format (JSON) in row-major order
http://www.bom.gov.au/fwo/IDN60801/IDN60801.94933.json

Data quality

Most of these data are generated automatically and are frequently updated. Quality checks on data are not normally performed. It is possible for incorrect values to appear. Refer to information at About Latest Weather Observations and please check the disclaimer before using these data.